Time;durP1;ratioP1;P1;durP2;ratioP2;P2;SDS_P1;SDS_P2;PMS_P1;PMS_P2;Temp;Humidity;BMP_temperature;BMP_pressure;BME280_temperature;BME280_humidity;BME280_pressure;Samples;Min_cycle;Max_cycle;Signal;HPM_P1;HPM_P2
2023/05/28 00:00:31;;;;;;;18.00;5.45;;;;;;;-146.25;100.00;52175.56;2096962;28;36334;-64
2023/05/28 00:01:33;;;;;;;16.65;5.30;;;;;;;-146.25;100.00;52167.47;2097130;28;36098;-65
2023/05/28 00:02:35;;;;;;;17.20;5.47;;;;;;;-146.25;100.00;52165.44;2097292;28;20134;-65
2023/05/28 00:03:39;;;;;;;16.27;5.47;;;;;;;-146.25;100.00;52181.66;2097271;28;24674;-65
2023/05/28 00:04:43;;;;;;;16.20;5.50;;;;;;;-146.25;100.00;52173.56;2097123;28;36590;-65
2023/05/28 00:05:46;;;;;;;17.77;5.75;;;;;;;-146.25;100.00;52177.59;2097051;28;20913;-65
2023/05/28 00:06:52;;;;;;;16.27;6.20;;;;;;;-146.25;100.00;52153.28;2096495;28;34902;-65
2023/05/28 00:07:56;;;;;;;21.25;5.60;;;;;;;-146.25;100.00;52203.97;2097373;28;31970;-65
2023/05/28 00:08:58;;;;;;;19.63;6.03;;;;;;;-146.25;100.00;52149.22;2097651;28;20188;-65
2023/05/28 00:10:00;;;;;;;17.98;5.13;;;;;;;-146.25;100.00;52173.56;2097564;28;29691;-65
2023/05/28 00:11:02;;;;;;;16.60;5.63;;;;;;;-146.25;100.00;52169.50;2097640;28;20779;-65
2023/05/28 00:12:06;;;;;;;16.48;5.70;;;;;;;-146.25;100.00;52163.41;2096826;28;36897;-65
2023/05/28 00:13:08;;;;;;;17.55;5.20;;;;;;;-146.25;100.00;52185.72;2096858;28;31442;-65
2023/05/28 00:14:13;;;;;;;16.63;5.57;;;;;;;-146.25;100.00;52179.63;2096992;28;34700;-65
2023/05/28 00:15:14;;;;;;;14.85;5.65;;;;;;;-146.25;100.00;52177.59;2096970;28;37153;-65
2023/05/28 00:16:16;;;;;;;14.35;5.45;;;;;;;-146.25;100.00;52169.50;2096957;28;31781;-65
2023/05/28 00:17:18;;;;;;;12.52;5.45;;;;;;;-146.25;100.00;52157.34;2097021;28;33414;-65
2023/05/28 00:18:22;;;;;;;18.27;5.95;;;;;;;-146.25;100.00;52139.09;2097375;28;29082;-65
2023/05/28 00:19:24;;;;;;;17.67;5.30;;;;;;;-146.25;100.00;52191.81;2096345;28;33570;-65
2023/05/28 00:20:28;;;;;;;15.38;5.50;;;;;;;-146.25;100.00;52175.56;2096702;28;35266;-65
2023/05/28 00:21:33;;;;;;;19.98;5.70;;;;;;;-146.25;100.00;52151.25;2096683;28;32890;-65
2023/05/28 00:22:35;;;;;;;13.82;5.57;;;;;;;-146.25;100.00;52171.53;2096778;28;32577;-65
2023/05/28 00:23:40;;;;;;;17.63;5.90;;;;;;;-146.25;100.00;52185.72;2096045;28;36840;-65
2023/05/28 00:24:42;;;;;;;17.88;6.32;;;;;;;-146.25;100.00;52169.50;2097116;28;34028;-65
2023/05/28 00:25:44;;;;;;;14.05;5.80;;;;;;;-146.25;100.00;52161.38;2096779;28;37993;-65
2023/05/28 00:26:45;;;;;;;18.05;6.15;;;;;;;-146.25;100.00;52165.44;2096959;28;31750;-65
2023/05/28 00:27:47;;;;;;;16.55;5.97;;;;;;;-146.25;100.00;52177.59;2097232;28;24568;-65
2023/05/28 00:28:49;;;;;;;15.68;5.68;;;;;;;-146.25;100.00;52179.63;2097885;28;20167;-65
2023/05/28 00:29:54;;;;;;;20.23;6.20;;;;;;;-146.25;100.00;52165.44;2096499;28;21034;-65
2023/05/28 00:30:56;;;;;;;13.90;5.90;;;;;;;-146.25;100.00;52171.53;2096301;28;33960;-65
2023/05/28 00:31:58;;;;;;;16.95;5.70;;;;;;;-146.25;100.00;52143.13;2096635;28;26658;-65
2023/05/28 00:33:02;;;;;;;23.60;6.45;;;;;;;-146.25;100.00;52167.47;2097098;28;20045;-65
2023/05/28 00:34:05;;;;;;;19.73;6.68;;;;;;;-146.25;100.00;52157.34;2096745;28;20041;-66
2023/05/28 00:35:07;;;;;;;17.70;6.45;;;;;;;-146.25;100.00;52175.56;2088117;28;26235;-66
2023/05/28 00:36:11;;;;;;;15.80;6.32;;;;;;;-146.25;100.00;52159.34;2088598;28;20038;-66
2023/05/28 00:37:13;;;;;;;14.60;5.60;;;;;;;-146.25;100.00;52161.38;2097658;28;24140;-66
2023/05/28 00:38:17;;;;;;;17.48;6.25;;;;;;;-146.25;100.00;52163.41;2097260;28;24607;-66
2023/05/28 00:39:24;;;;;;;17.20;6.00;;;;;;;-146.25;100.00;52181.66;2096988;28;30613;-65
2023/05/28 00:40:26;;;;;;;19.33;6.65;;;;;;;-146.25;100.00;52149.22;2097303;28;20180;-66
2023/05/28 00:41:35;;;;;;;19.45;6.35;;;;;;;-146.25;100.00;52133.00;2097148;28;27484;-66
2023/05/28 00:42:37;;;;;;;21.27;6.97;;;;;;;-146.25;100.00;52153.28;2096790;28;20041;-65
2023/05/28 00:43:39;;;;;;;23.50;6.13;;;;;;;-146.25;100.00;52157.34;2096798;28;20092;-66
2023/05/28 00:44:42;;;;;;;16.02;5.82;;;;;;;-146.25;100.00;52118.81;2087860;28;27911;-66
2023/05/28 00:45:44;;;;;;;21.77;6.95;;;;;;;-146.25;100.00;52141.13;2088580;28;20192;-66
2023/05/28 00:46:46;;;;;;;17.33;5.93;;;;;;;-146.25;100.00;52133.00;2096397;28;20049;-66
2023/05/28 00:47:52;;;;;;;19.45;6.38;;;;;;;-146.25;100.00;52191.81;2088264;28;20042;-65
2023/05/28 00:48:54;;;;;;;16.10;5.80;;;;;;;-146.25;100.00;52151.25;2089460;28;20030;-64
2023/05/28 00:50:00;;;;;;;20.63;6.45;;;;;;;-146.25;100.00;52155.31;2096238;28;31885;-66
2023/05/28 00:51:02;;;;;;;18.42;6.38;;;;;;;-146.25;100.00;52189.78;2097044;28;26891;-65
2023/05/28 00:52:05;;;;;;;18.67;6.35;;;;;;;-146.25;100.00;52128.94;2096095;28;30696;-66
2023/05/28 00:53:07;;;;;;;20.25;6.60;;;;;;;-146.25;100.00;52206.00;2096060;28;34093;-66
2023/05/28 00:54:11;;;;;;;15.68;5.95;;;;;;;-146.25;100.00;52165.44;2096898;28;20099;-66
2023/05/28 00:55:15;;;;;;;19.73;5.90;;;;;;;-146.25;100.00;52126.91;2087838;28;31642;-66
2023/05/28 00:56:17;;;;;;;26.13;7.10;;;;;;;-146.25;100.00;52173.56;2087973;28;22463;-66
2023/05/28 00:57:21;;;;;;;20.02;6.50;;;;;;;-146.25;100.00;52165.44;2096255;28;31733;-65
2023/05/28 00:58:25;;;;;;;15.95;5.72;;;;;;;-146.25;100.00;52133.00;2096936;28;30434;-66
2023/05/28 00:59:28;;;;;;;20.02;6.80;;;;;;;-146.25;100.00;52130.97;2097094;28;32175;-66
2023/05/28 01:00:29;;;;;;;17.88;6.88;;;;;;;-146.25;100.00;52171.53;2096466;28;20079;-66
2023/05/28 01:01:31;;;;;;;19.90;6.88;;;;;;;-146.25;100.00;52147.19;2096273;28;31160;-66
2023/05/28 01:02:33;;;;;;;19.88;6.50;;;;;;;-146.25;100.00;52183.69;2096734;28;20930;-66
2023/05/28 01:03:39;;;;;;;18.83;6.82;;;;;;;-146.25;100.00;52135.03;2096158;28;28743;-65
2023/05/28 01:04:44;;;;;;;23.40;7.85;;;;;;;-146.25;100.00;52153.28;2096794;28;20048;-65
2023/05/28 01:05:47;;;;;;;21.48;6.78;;;;;;;-146.25;100.00;52181.66;2096619;28;20770;-65
2023/05/28 01:06:49;;;;;;;18.95;6.93;;;;;;;-146.25;100.00;52169.50;2096311;28;31676;-66
2023/05/28 01:07:51;;;;;;;22.60;7.32;;;;;;;-146.25;100.00;52143.13;2088263;28;20053;-65
2023/05/28 01:08:52;;;;;;;15.40;6.55;;;;;;;-146.25;100.00;52124.91;2087986;28;29802;-65
2023/05/28 01:09:55;;;;;;;18.67;6.70;;;;;;;-146.25;100.00;52143.13;2088383;28;20037;-66
2023/05/28 01:10:57;;;;;;;24.08;7.47;;;;;;;-146.25;100.00;52124.91;2087597;28;26638;-65
2023/05/28 01:12:00;;;;;;;22.02;7.68;;;;;;;-146.25;100.00;52161.38;2097206;28;23821;-65
2023/05/28 01:13:06;;;;;;;16.00;6.55;;;;;;;-146.25;100.00;52173.56;2096190;28;25203;-65
2023/05/28 01:14:11;;;;;;;20.13;6.78;;;;;;;-146.25;100.00;52155.31;2096926;28;27508;-66
2023/05/28 01:15:14;;;;;;;20.10;7.43;;;;;;;-146.25;100.00;52153.28;2088226;28;20045;-66
2023/05/28 01:16:16;;;;;;;20.40;7.28;;;;;;;-146.25;100.00;52149.22;2088576;28;20041;-65
2023/05/28 01:17:20;;;;;;;19.05;7.30;;;;;;;-146.25;100.00;52147.19;2096463;28;20049;-64
2023/05/28 01:18:24;;;;;;;19.40;6.80;;;;;;;-146.25;100.00;52181.66;2087926;28;20041;-65
2023/05/28 01:19:27;;;;;;;19.42;6.90;;;;;;;-146.25;100.00;52151.25;2088472;28;20921;-65
2023/05/28 01:20:30;;;;;;;23.15;7.07;;;;;;;-146.25;100.00;52167.47;2096614;28;20033;-66
2023/05/28 01:21:32;;;;;;;22.08;7.13;;;;;;;-146.25;100.00;52171.53;2096315;28;29978;-66
2023/05/28 01:22:41;;;;;;;20.75;7.13;;;;;;;-146.25;100.00;52177.59;2088148;28;20050;-66
2023/05/28 01:23:45;;;;;;;21.25;7.18;;;;;;;-146.25;100.00;52165.44;2080980;28;20061;-66
2023/05/28 01:24:48;;;;;;;19.65;7.05;;;;;;;-146.25;100.00;52201.94;2088609;28;20153;-65
2023/05/28 01:25:56;;;;;;;20.13;6.70;;;;;;;-146.25;100.00;52159.34;2087706;28;23590;-66
2023/05/28 01:27:00;;;;;;;15.88;6.88;;;;;;;-146.25;100.00;52155.31;2088386;28;23756;-66
2023/05/28 01:28:01;;;;;;;20.02;8.18;;;;;;;-146.25;100.00;52116.78;2087683;28;20045;-65
2023/05/28 01:29:15;;;;;;;22.52;7.22;;;;;;;-146.25;100.00;52195.84;2088264;28;20044;-65
2023/05/28 01:30:17;;;;;;;21.02;6.95;;;;;;;-146.25;100.00;52153.28;2079918;28;20093;-66
2023/05/28 01:31:19;;;;;;;22.67;7.65;;;;;;;-146.25;100.00;52197.88;2079944;28;23004;-66
2023/05/28 01:32:21;;;;;;;15.13;6.47;;;;;;;-146.25;100.00;52133.00;2087596;28;20795;-66
2023/05/28 01:33:25;;;;;;;19.58;7.30;;;;;;;-146.25;100.00;52165.44;2088372;28;20034;-66
2023/05/28 01:34:28;;;;;;;16.55;6.90;;;;;;;-146.25;100.00;52155.31;2087896;28;20855;-66
2023/05/28 01:35:31;;;;;;;17.60;6.50;;;;;;;-146.25;100.00;52181.66;2087714;28;20053;-65
2023/05/28 01:36:38;;;;;;;20.00;7.80;;;;;;;-146.25;100.00;52133.00;2088014;28;20326;-66
2023/05/28 01:37:49;;;;;;;15.82;6.68;;;;;;;-146.25;100.00;52169.50;2087234;28;20041;-66
2023/05/28 01:38:58;;;;;;;17.98;7.68;;;;;;;-146.25;100.00;52201.94;2073253;28;20895;-66
2023/05/28 01:40:04;;;;;;;20.98;6.90;;;;;;;-146.25;100.00;52135.03;2080547;28;20189;-66
2023/05/28 01:41:07;;;;;;;20.00;7.35;;;;;;;-146.25;100.00;52135.03;2088025;28;23816;-65
2023/05/28 01:42:11;;;;;;;18.48;7.40;;;;;;;-146.25;100.00;52155.31;2087719;28;29470;-66
2023/05/28 01:43:14;;;;;;;21.77;8.02;;;;;;;-146.25;100.00;52206.00;2095601;22;20037;-67
2023/05/28 01:44:18;;;;;;;20.65;7.80;;;;;;;-146.25;100.00;52128.94;2079930;28;24431;-68
2023/05/28 01:45:21;;;;;;;21.15;7.63;;;;;;;-146.25;100.00;52197.88;2072975;28;20046;-67
2023/05/28 01:46:24;;;;;;;17.98;6.45;;;;;;;-146.25;100.00;52169.50;2088033;28;20036;-68
2023/05/28 01:47:28;;;;;;;24.30;8.13;;;;;;;-146.25;100.00;52165.44;2079654;28;20038;-69
2023/05/28 01:48:32;;;;;;;21.92;8.02;;;;;;;-146.25;100.00;52173.56;2080062;28;20042;-67
2023/05/28 01:49:35;;;;;;;17.95;6.95;;;;;;;-146.25;100.00;52191.81;2079376;28;31712;-69
2023/05/28 01:50:39;;;;;;;26.30;8.77;;;;;;;-146.25;100.00;52141.13;2072311;28;20047;-69
2023/05/28 01:51:41;;;;;;;21.50;8.40;;;;;;;-146.25;100.00;52169.50;2071637;28;20213;-68
2023/05/28 01:52:45;;;;;;;24.00;8.60;;;;;;;-146.25;100.00;52165.44;2071062;28;20562;-69
2023/05/28 01:53:47;;;;;;;26.10;8.73;;;;;;;-146.25;100.00;52157.34;2080172;28;20119;-68
2023/05/28 01:54:48;;;;;;;25.40;8.60;;;;;;;-146.25;100.00;52122.88;2087647;28;20046;-67
2023/05/28 01:55:55;;;;;;;25.38;8.80;;;;;;;-146.25;100.00;52108.66;2083441;28;20084;-67
2023/05/28 01:56:57;;;;;;;26.83;9.45;;;;;;;-146.25;100.00;52169.50;2087162;28;26943;-68
2023/05/28 01:57:59;;;;;;;24.80;9.30;;;;;;;-146.25;100.00;52126.91;2079755;28;20049;-67
2023/05/28 01:59:04;;;;;;;25.05;8.48;;;;;;;-146.25;100.00;52116.78;2087579;28;20038;-68
2023/05/28 02:00:09;;;;;;;24.02;8.48;;;;;;;-146.25;100.00;52126.91;2095540;28;21007;-68
2023/05/28 02:01:29;;;;;;;23.92;8.55;;;;;;;-146.25;100.00;52122.88;2088093;28;20076;-69
2023/05/28 02:02:34;;;;;;;26.65;9.68;;;;;;;-146.25;100.00;52155.31;2067729;28;20167;-69
2023/05/28 02:03:36;;;;;;;22.35;7.82;;;;;;;-146.25;100.00;52155.31;2072228;28;20050;-69
2023/05/28 02:04:37;;;;;;;29.70;9.02;;;;;;;-146.25;100.00;52177.59;2087147;28;25013;-69
2023/05/28 02:05:39;;;;;;;17.38;8.75;;;;;;;-146.25;100.00;52155.31;2079320;28;27441;-69
2023/05/28 02:06:45;;;;;;;24.33;8.70;;;;;;;-146.25;100.00;52118.81;2079764;28;20042;-69
2023/05/28 02:07:47;;;;;;;22.95;9.57;;;;;;;-146.25;100.00;52167.47;2087073;28;30657;-69
2023/05/28 02:08:50;;;;;;;26.13;8.55;;;;;;;-146.25;100.00;52139.09;2079540;28;20045;-69
2023/05/28 02:09:52;;;;;;;24.92;9.40;;;;;;;-146.25;100.00;52159.34;2071659;28;27393;-69
2023/05/28 02:10:54;;;;;;;26.80;9.43;;;;;;;-146.25;100.00;52130.97;2071418;28;23431;-69
2023/05/28 02:11:58;;;;;;;21.50;8.60;;;;;;;-146.25;100.00;52118.81;2079363;28;20081;-68
2023/05/28 02:13:03;;;;;;;26.15;9.30;;;;;;;-146.25;100.00;52159.34;2087267;28;20946;-68
2023/05/28 02:14:04;;;;;;;22.48;8.70;;;;;;;-146.25;100.00;52137.06;2079519;28;30452;-68
2023/05/28 02:15:07;;;;;;;23.50;9.40;;;;;;;-146.25;100.00;52189.78;2089484;28;20045;-69
2023/05/28 02:16:10;;;;;;;29.25;9.88;;;;;;;-146.25;100.00;52161.38;2079108;28;20858;-68
2023/05/28 02:17:17;;;;;;;23.35;8.98;;;;;;;-146.25;100.00;52141.13;2079116;28;23447;-69
2023/05/28 02:18:20;;;;;;;15.65;8.00;;;;;;;-146.25;100.00;52161.38;2087818;28;20046;-68
2023/05/28 02:19:24;;;;;;;28.75;9.10;;;;;;;-146.25;100.00;52143.13;2079533;28;20069;-68
2023/05/28 02:20:26;;;;;;;23.38;9.50;;;;;;;-146.25;100.00;52133.00;2080049;28;20076;-68
2023/05/28 02:21:28;;;;;;;22.73;8.10;;;;;;;-146.25;100.00;52173.56;2087267;28;26639;-69
2023/05/28 02:22:31;;;;;;;29.35;10.07;;;;;;;-146.25;100.00;52135.03;2080005;28;20034;-69
2023/05/28 02:23:36;;;;;;;27.77;10.27;;;;;;;-146.25;100.00;52112.72;2079891;28;26879;-68
2023/05/28 02:24:39;;;;;;;23.50;9.00;;;;;;;-146.25;100.00;52197.88;2079874;28;35597;-69
2023/05/28 02:25:41;;;;;;;22.10;9.30;;;;;;;-146.25;100.00;52137.06;2081723;28;24549;-69
2023/05/28 02:26:43;;;;;;;26.38;8.80;;;;;;;-146.25;100.00;52206.00;2079058;28;25886;-68
2023/05/28 02:27:47;;;;;;;21.33;10.05;;;;;;;-146.25;100.00;52167.47;2079574;28;26422;-69
2023/05/28 02:28:49;;;;;;;23.02;9.00;;;;;;;-146.25;100.00;52141.13;2087778;28;20132;-68
2023/05/28 02:29:51;;;;;;;22.10;8.63;;;;;;;-146.25;100.00;52151.25;2079604;28;20163;-68
2023/05/28 02:30:52;;;;;;;21.90;8.55;;;;;;;-146.25;100.00;52149.22;2079883;28;21116;-69
2023/05/28 02:31:54;;;;;;;23.27;8.13;;;;;;;-146.25;100.00;52147.19;2079636;28;20152;-69
2023/05/28 02:32:56;;;;;;;30.67;10.07;;;;;;;-146.25;100.00;52145.16;2087592;28;20931;-69
2023/05/28 02:34:00;;;;;;;22.52;8.90;;;;;;;-146.25;100.00;52197.88;2087761;28;20038;-69
2023/05/28 02:35:02;;;;;;;23.92;8.35;;;;;;;-146.25;100.00;52167.47;2079458;28;22307;-68
2023/05/28 02:36:06;;;;;;;23.35;7.68;;;;;;;-146.25;100.00;52189.78;2095728;28;20052;-69
2023/05/28 02:37:09;;;;;;;18.77;7.85;;;;;;;-146.25;100.00;52149.22;2086992;28;20045;-69
2023/05/28 02:38:10;;;;;;;22.13;8.77;;;;;;;-146.25;100.00;52137.06;2079260;28;21950;-69
2023/05/28 02:39:13;;;;;;;22.90;9.45;;;;;;;-146.25;100.00;52185.72;2087325;28;20158;-68
2023/05/28 02:40:16;;;;;;;22.83;8.73;;;;;;;-146.25;100.00;52145.16;2095882;28;20033;-68
2023/05/28 02:41:17;;;;;;;25.23;8.85;;;;;;;-146.25;100.00;52122.88;2095641;28;23778;-68
2023/05/28 02:42:23;;;;;;;25.92;8.65;;;;;;;-146.25;100.00;52128.94;2087594;28;20041;-68
2023/05/28 02:43:25;;;;;;;23.45;8.52;;;;;;;-146.25;100.00;52149.22;2078823;28;26649;-68
2023/05/28 02:44:27;;;;;;;16.25;7.80;;;;;;;-146.25;100.00;52137.06;2070553;28;20141;-68
2023/05/28 02:45:31;;;;;;;21.05;8.65;;;;;;;-146.25;100.00;52177.59;2087882;28;20475;-68
2023/05/28 02:46:33;;;;;;;22.83;8.85;;;;;;;-146.25;100.00;52203.97;2094605;28;21624;-68
2023/05/28 02:47:35;;;;;;;32.10;10.73;;;;;;;-146.25;100.00;52137.06;2079446;28;20045;-69
2023/05/28 02:48:38;;;;;;;22.45;9.27;;;;;;;-146.25;100.00;52151.25;2079252;28;20045;-67
2023/05/28 02:49:40;;;;;;;25.08;9.13;;;;;;;-146.25;100.00;52179.63;2095867;28;20254;-69
2023/05/28 02:50:42;;;;;;;32.63;9.60;;;;;;;-146.25;100.00;52189.78;2095910;28;20053;-68
2023/05/28 02:52:10;;;;;;;23.92;9.20;;;;;;;-146.25;100.00;52199.91;2071567;28;20098;-68
2023/05/28 02:53:21;;;;;;;19.63;8.63;;;;;;;-146.25;100.00;52175.56;2088084;28;20049;-68
2023/05/28 02:54:24;;;;;;;24.67;9.40;;;;;;;-146.25;100.00;52183.69;2087779;28;20046;-68
2023/05/28 02:55:26;;;;;;;26.38;9.05;;;;;;;-146.25;100.00;52183.69;2086956;28;20049;-68
2023/05/28 02:56:28;;;;;;;29.60;9.70;;;;;;;-146.25;100.00;52201.94;2087615;28;20952;-69
2023/05/28 02:57:30;;;;;;;23.33;8.75;;;;;;;-146.25;100.00;52143.13;2087230;28;21048;-69
2023/05/28 02:58:33;;;;;;;25.05;9.73;;;;;;;-146.25;100.00;52183.69;2079416;28;20123;-68
2023/05/28 02:59:35;;;;;;;26.40;9.48;;;;;;;-146.25;100.00;52181.66;2087402;28;20934;-69
2023/05/28 03:00:37;;;;;;;23.00;9.20;;;;;;;-146.25;100.00;52141.13;2095930;28;20041;-69
2023/05/28 03:01:44;;;;;;;18.58;8.80;;;;;;;-146.25;100.00;52177.59;2095799;28;20041;-69
2023/05/28 03:02:46;;;;;;;21.40;9.23;;;;;;;-146.25;100.00;52120.84;2095623;28;20103;-69
2023/05/28 03:03:49;;;;;;;20.25;9.13;;;;;;;-146.25;100.00;52153.28;2087342;28;20823;-68
2023/05/28 03:04:53;;;;;;;26.13;9.02;;;;;;;-146.25;100.00;52153.28;2087328;28;20131;-69
2023/05/28 03:05:54;;;;;;;25.23;8.68;;;;;;;-146.25;100.00;52157.34;2079286;28;20042;-69
2023/05/28 03:06:57;;;;;;;24.60;8.55;;;;;;;-146.25;100.00;52114.75;2087861;28;20644;-69
2023/05/28 03:07:59;;;;;;;22.73;8.45;;;;;;;-146.25;100.00;52147.19;2095848;28;20045;-69
2023/05/28 03:09:01;;;;;;;27.90;9.25;;;;;;;-146.25;100.00;52183.69;2087725;28;20081;-69
2023/05/28 03:10:04;;;;;;;18.48;8.07;;;;;;;-146.25;100.00;52141.13;2095468;28;20033;-69
2023/05/28 03:11:07;;;;;;;22.13;8.98;;;;;;;-146.25;100.00;52120.84;2095278;28;21015;-69
2023/05/28 03:12:09;;;;;;;25.00;8.57;;;;;;;-146.25;100.00;52118.81;2087512;28;20171;-69
2023/05/28 03:13:11;;;;;;;22.08;8.85;;;;;;;-146.25;100.00;52165.44;2088231;28;20042;-68
2023/05/28 03:14:13;;;;;;;19.42;8.68;;;;;;;-146.25;100.00;52222.22;2087362;28;20176;-69
2023/05/28 03:15:18;;;;;;;22.50;8.23;;;;;;;-146.25;100.00;52145.16;2079220;28;20042;-68
2023/05/28 03:16:25;;;;;;;22.20;8.75;;;;;;;-146.25;100.00;52187.75;2087598;28;20167;-69
2023/05/28 03:17:27;;;;;;;21.40;8.82;;;;;;;-146.25;100.00;52161.38;2095016;28;20108;-68
2023/05/28 03:18:30;;;;;;;24.45;8.95;;;;;;;-146.25;100.00;52137.06;2087511;28;20056;-69
2023/05/28 03:19:32;;;;;;;19.50;8.48;;;;;;;-146.25;100.00;52175.56;2086917;28;27209;-69
2023/05/28 03:20:36;;;;;;;21.80;8.80;;;;;;;-146.25;100.00;52143.13;2079339;28;20140;-69
2023/05/28 03:21:38;;;;;;;21.98;8.60;;;;;;;-146.25;100.00;52141.13;2087397;28;20046;-69
2023/05/28 03:22:40;;;;;;;22.13;8.40;;;;;;;-146.25;100.00;52149.22;2087012;28;20096;-68
2023/05/28 03:23:43;;;;;;;23.00;9.13;;;;;;;-146.25;100.00;52175.56;2087086;28;20041;-68
2023/05/28 03:24:57;;;;;;;22.85;9.38;;;;;;;-146.25;100.00;52147.19;2087385;28;20930;-68
2023/05/28 03:25:59;;;;;;;28.70;9.70;;;;;;;-146.25;100.00;52153.28;2087579;28;20827;-68
2023/05/28 03:27:02;;;;;;;22.20;9.10;;;;;;;-146.25;100.00;52120.84;2095568;28;20260;-69
2023/05/28 03:28:04;;;;;;;22.67;8.40;;;;;;;-146.25;100.00;52159.34;2095732;28;20685;-69
2023/05/28 03:29:20;;;;;;;22.73;7.97;;;;;;;-146.25;100.00;52167.47;2079297;28;20985;-69
2023/05/28 03:30:42;;;;;;;25.13;9.00;;;;;;;-146.25;100.00;52153.28;2089913;28;21065;-69
2023/05/28 03:31:46;;;;;;;19.30;8.07;;;;;;;-146.25;100.00;52104.63;2095321;28;20857;-69
2023/05/28 03:32:52;;;;;;;22.42;8.65;;;;;;;-146.25;100.00;52143.13;2087152;28;20103;-68
2023/05/28 03:33:55;;;;;;;23.75;8.55;;;;;;;-146.25;100.00;52179.63;2095748;28;20180;-68
2023/05/28 03:34:58;;;;;;;20.70;8.15;;;;;;;-146.25;100.00;52147.19;2095577;28;20049;-69
2023/05/28 03:36:06;;;;;;;21.83;8.20;;;;;;;-146.25;100.00;52167.47;2087525;28;20042;-69
2023/05/28 03:37:08;;;;;;;19.70;8.18;;;;;;;-146.25;100.00;52135.03;2087035;28;20044;-69
2023/05/28 03:38:11;;;;;;;27.08;8.55;;;;;;;-146.25;100.00;52159.34;2087540;28;20256;-68
2023/05/28 03:39:13;;;;;;;20.25;9.10;;;;;;;-146.25;100.00;52153.28;2095185;28;20883;-69
2023/05/28 03:40:15;;;;;;;17.98;8.45;;;;;;;-146.25;100.00;52167.47;2095848;28;20045;-69
2023/05/28 03:41:17;;;;;;;19.92;8.00;;;;;;;-146.25;100.00;52161.38;2094878;28;29458;-68
2023/05/28 03:42:20;;;;;;;18.98;8.52;;;;;;;-146.25;100.00;52173.56;2095293;28;20071;-68
2023/05/28 03:43:22;;;;;;;22.42;7.97;;;;;;;-146.25;100.00;52118.81;2094703;28;20050;-68
2023/05/28 03:44:24;;;;;;;19.33;7.57;;;;;;;-146.25;100.00;52143.13;2095251;28;20134;-69
2023/05/28 03:45:25;;;;;;;20.80;8.63;;;;;;;-146.25;100.00;52126.91;2087058;28;20041;-69
2023/05/28 03:46:27;;;;;;;22.42;8.15;;;;;;;-146.25;100.00;52195.84;2086641;28;20034;-69
2023/05/28 03:47:32;;;;;;;23.65;8.70;;;;;;;-146.25;100.00;52177.59;2087081;28;20049;-68
2023/05/28 03:48:34;;;;;;;23.08;8.13;;;;;;;-146.25;100.00;52135.03;2086895;28;20033;-68
2023/05/28 03:49:36;;;;;;;23.52;8.10;;;;;;;-146.25;100.00;52167.47;2094600;28;32290;-69
2023/05/28 03:50:39;;;;;;;21.10;8.40;;;;;;;-146.25;100.00;52191.81;2095478;28;20103;-69
2023/05/28 03:51:41;;;;;;;18.45;7.55;;;;;;;-146.25;100.00;52169.50;2095350;28;20049;-69
2023/05/28 03:52:44;;;;;;;22.35;7.57;;;;;;;-146.25;100.00;52173.56;2087219;28;20829;-70
2023/05/28 03:53:46;;;;;;;22.25;7.53;;;;;;;-146.25;100.00;52222.22;2087229;28;20171;-68
2023/05/28 03:54:48;;;;;;;16.48;7.38;;;;;;;-146.25;100.00;52181.66;2095095;28;20048;-68
2023/05/28 03:55:51;;;;;;;21.15;7.25;;;;;;;-146.25;100.00;52167.47;2087268;28;20352;-69
2023/05/28 03:56:53;;;;;;;15.55;7.40;;;;;;;-146.25;100.00;52137.06;2086775;28;20049;-70
2023/05/28 03:57:55;;;;;;;22.63;7.78;;;;;;;-146.25;100.00;52169.50;2079185;28;20827;-70
2023/05/28 03:58:57;;;;;;;25.65;7.82;;;;;;;-146.25;100.00;52171.53;2079540;28;20034;-69
2023/05/28 03:59:59;;;;;;;22.70;7.60;;;;;;;-146.25;100.00;52124.91;2080263;28;20944;-69
2023/05/28 04:01:01;;;;;;;21.50;7.80;;;;;;;-146.25;100.00;52183.69;2097326;28;20790;-70
2023/05/28 04:02:03;;;;;;;19.00;7.40;;;;;;;-146.25;100.00;52175.56;2096489;28;20159;-67
2023/05/28 04:03:05;;;;;;;20.45;7.80;;;;;;;-146.25;100.00;52197.88;2088887;28;20045;-67
2023/05/28 04:04:07;;;;;;;19.55;6.82;;;;;;;-146.25;100.00;52203.97;2088606;28;20135;-68
2023/05/28 04:05:09;;;;;;;19.58;6.53;;;;;;;-146.25;100.00;52187.75;2088111;28;32120;-69
2023/05/28 04:06:12;;;;;;;17.00;6.75;;;;;;;-146.25;100.00;52187.75;2088406;28;21200;-68
2023/05/28 04:07:14;;;;;;;19.00;6.93;;;;;;;-146.25;100.00;52214.09;2088786;28;21895;-69
2023/05/28 04:08:18;;;;;;;16.52;6.68;;;;;;;-146.25;100.00;52189.78;2080439;28;20977;-68
2023/05/28 04:09:20;;;;;;;17.25;7.18;;;;;;;-146.25;100.00;52206.00;2089160;28;20150;-69
2023/05/28 04:10:21;;;;;;;18.73;5.97;;;;;;;-146.25;100.00;52226.25;2096616;28;20134;-68
2023/05/28 04:11:24;;;;;;;16.33;6.18;;;;;;;-146.25;100.00;52191.81;2096712;28;20085;-68
2023/05/28 04:12:26;;;;;;;17.35;6.00;;;;;;;-146.25;100.00;52173.56;2088189;28;20834;-68
2023/05/28 04:13:28;;;;;;;15.07;5.32;;;;;;;-146.25;100.00;52218.16;2080221;28;20838;-68
2023/05/28 04:14:31;;;;;;;12.27;5.70;;;;;;;-146.25;98.99;52175.56;2080237;28;20889;-68
2023/05/28 04:15:35;;;;;;;12.15;4.95;;;;;;;-146.25;95.80;52191.81;2088827;28;20050;-68
2023/05/28 04:16:41;;;;;;;12.40;5.50;;;;;;;-146.25;92.98;52175.56;2096743;28;20887;-68
2023/05/28 04:17:43;;;;;;;13.05;5.68;;;;;;;-146.25;94.27;52195.84;2088264;28;25712;-67
2023/05/28 04:18:47;;;;;;;12.63;5.65;;;;;;;-146.25;93.78;52181.66;2088323;28;20061;-68
2023/05/28 04:19:53;;;;;;;15.38;5.60;;;;;;;-146.25;94.41;52206.00;2097085;28;20151;-68
2023/05/28 04:20:56;;;;;;;13.90;5.65;;;;;;;-146.25;94.58;52159.34;2095756;28;20045;-68
2023/05/28 04:21:58;;;;;;;11.15;4.50;;;;;;;-146.25;94.79;52181.66;2097122;28;20092;-68
2023/05/28 04:23:01;;;;;;;12.43;5.47;;;;;;;-146.25;95.71;52169.50;2097194;28;20045;-68
2023/05/28 04:24:04;;;;;;;14.85;4.75;;;;;;;-146.25;96.13;52208.03;2080489;28;20042;-68
2023/05/28 04:25:07;;;;;;;13.55;5.25;;;;;;;-146.25;97.03;52197.88;2080396;28;20926;-68
2023/05/28 04:26:10;;;;;;;16.70;6.20;;;;;;;-146.25;96.78;52165.44;2080299;28;20069;-68
2023/05/28 04:27:13;;;;;;;14.93;5.68;;;;;;;-146.25;96.61;52218.16;2088720;28;20049;-68
2023/05/28 04:28:15;;;;;;;13.75;4.88;;;;;;;-146.25;97.18;52177.59;2088816;28;20192;-68
2023/05/28 04:29:18;;;;;;;16.48;5.97;;;;;;;-146.25;97.90;52208.03;2080496;28;20830;-68
2023/05/28 04:30:23;;;;;;;13.73;5.60;;;;;;;-146.25;98.49;52143.13;2080167;28;20050;-68
2023/05/28 04:31:27;;;;;;;12.48;5.15;;;;;;;-146.25;99.01;52175.56;2080280;28;26634;-68
2023/05/28 04:32:31;;;;;;;12.52;4.93;;;;;;;-146.25;99.11;52195.84;2088927;28;26399;-68
2023/05/28 04:33:36;;;;;;;12.50;4.97;;;;;;;-146.25;99.23;52173.56;2089234;28;20033;-68
2023/05/28 04:34:40;;;;;;;16.00;5.82;;;;;;;-146.25;99.30;52220.19;2096932;28;20048;-68
2023/05/28 04:35:42;;;;;;;13.45;5.70;;;;;;;-146.25;98.74;52171.53;2095785;28;30092;-68
2023/05/28 04:36:44;;;;;;;12.00;4.93;;;;;;;-146.25;98.89;52189.78;2088622;28;20030;-67
2023/05/28 04:37:46;;;;;;;12.80;5.22;;;;;;;-146.25;99.36;52195.84;2096421;28;20887;-68
2023/05/28 04:38:48;;;;;;;13.63;5.30;;;;;;;-146.25;99.44;52165.44;2096613;28;20121;-68
2023/05/28 04:39:51;;;;;;;13.65;5.00;;;;;;;-146.25;99.80;52238.44;2080162;28;20164;-67
2023/05/28 04:40:53;;;;;;;13.70;5.95;;;;;;;-146.25;99.63;52197.88;2080522;28;20131;-68
2023/05/28 04:41:55;;;;;;;13.05;5.35;;;;;;;-146.25;99.20;52210.03;2096696;28;20029;-68
2023/05/28 04:42:57;;;;;;;14.13;5.40;;;;;;;-146.25;99.57;52201.94;2096852;28;20254;-68
2023/05/28 04:44:04;;;;;;;13.13;5.53;;;;;;;-146.25;99.70;52199.91;2088038;28;20854;-68
2023/05/28 04:45:10;;;;;;;16.73;5.10;;;;;;;-146.25;98.65;52203.97;2088485;28;20077;-68